Time;durP1;ratioP1;P1;durP2;ratioP2;P2;SDS_P1;SDS_P2;PMS_P1;PMS_P2;Temp;Humidity;BMP_temperature;BMP_pressure;BME280_temperature;BME280_humidity;BME280_pressure;Samples;Min_cycle;Max_cycle;Signal;HPM_P1;HPM_P2
2022/12/24 06:40:57;;;;;;;17.37;1.80;;;10.30;99.90;;;;;;3839163;23;20238;-70
2022/12/24 06:43:24;;;;;;;11.73;1.93;;;10.20;99.90;;;;;;4891592;29;20226;-72
2022/12/24 06:45:52;;;;;;;10.03;1.50;;;10.10;99.90;;;;;;4895808;29;20214;-71
2022/12/24 06:48:19;;;;;;;12.50;1.40;;;10.10;99.90;;;;;;4899165;29;20233;-71
2022/12/24 06:50:45;;;;;;;17.60;1.53;;;10.10;99.90;;;;;;4897789;29;20674;-70
2022/12/24 06:53:12;;;;;;;10.87;1.60;;;10.20;99.90;;;;;;4898466;29;20564;-70
2022/12/24 06:55:39;;;;;;;17.50;2.83;;;10.10;99.90;;;;;;4898615;29;20249;-69
2022/12/24 06:58:07;;;;;;;7.60;1.57;;;10.20;99.90;;;;;;4898584;29;20231;-70
2022/12/24 07:00:34;;;;;;;8.67;1.30;;;10.10;99.90;;;;;;4896446;29;20217;-70
2022/12/24 07:03:01;;;;;;;9.77;1.73;;;10.10;99.90;;;;;;4898174;29;20270;-70
2022/12/24 07:05:29;;;;;;;14.30;1.90;;;10.10;99.90;;;;;;4890867;29;20215;-70
2022/12/24 07:07:56;;;;;;;16.07;1.67;;;10.10;99.90;;;;;;4899112;29;20235;-70
2022/12/24 07:10:23;;;;;;;20.83;3.17;;;10.10;99.90;;;;;;4897334;29;20693;-70
2022/12/24 07:12:49;;;;;;;12.83;1.87;;;10.10;99.90;;;;;;4897351;29;20221;-70
2022/12/24 07:15:18;;;;;;;9.70;1.70;;;10.10;99.90;;;;;;4895293;29;20241;-70
2022/12/24 07:17:44;;;;;;;5.80;1.53;;;10.10;99.90;;;;;;4897489;29;20226;-70
2022/12/24 07:20:13;;;;;;;11.57;1.97;;;10.20;99.90;;;;;;4899112;29;20222;-71
2022/12/24 07:22:40;;;;;;;13.97;1.90;;;10.20;99.90;;;;;;4896440;29;20278;-69
2022/12/24 07:25:08;;;;;;;10.97;2.00;;;10.10;99.90;;;;;;4898348;29;20222;-69
2022/12/24 07:27:35;;;;;;;6.60;1.33;;;10.20;99.90;;;;;;4896031;29;20248;-69
2022/12/24 07:30:02;;;;;;;15.27;1.80;;;10.10;99.90;;;;;;4897928;29;20211;-69
2022/12/24 07:32:30;;;;;;;15.87;2.40;;;10.10;99.90;;;;;;4897068;29;20698;-69
2022/12/24 07:34:57;;;;;;;11.40;1.70;;;10.10;99.90;;;;;;4896324;29;20231;-70
2022/12/24 07:37:24;;;;;;;10.13;1.50;;;10.20;99.90;;;;;;4891147;29;20246;-69
2022/12/24 07:39:51;;;;;;;16.37;2.47;;;10.20;99.90;;;;;;4893852;29;20314;-69
2022/12/24 07:42:17;;;;;;;18.80;2.10;;;10.10;99.90;;;;;;4891552;29;20589;-69
2022/12/24 07:44:44;;;;;;;14.93;1.53;;;10.10;99.90;;;;;;4897441;29;20210;-69
2022/12/24 07:47:11;;;;;;;13.40;1.63;;;10.10;99.90;;;;;;4896164;29;20238;-71
2022/12/24 07:49:39;;;;;;;14.57;2.00;;;10.10;99.90;;;;;;4897184;29;20224;-70
2022/12/24 07:52:06;;;;;;;10.60;1.83;;;10.10;99.90;;;;;;4893536;29;20222;-70
2022/12/24 07:54:33;;;;;;;12.33;2.10;;;10.10;99.90;;;;;;4893552;29;20676;-70
2022/12/24 07:57:00;;;;;;;9.50;1.73;;;10.10;99.90;;;;;;4895274;29;20242;-70
2022/12/24 07:59:26;;;;;;;10.17;1.40;;;10.20;99.90;;;;;;4898228;29;20210;-70
2022/12/24 08:01:53;;;;;;;12.33;2.00;;;10.20;99.90;;;;;;4894034;29;20206;-69
2022/12/24 08:04:20;;;;;;;14.90;2.00;;;10.20;99.90;;;;;;4897126;29;20677;-69
2022/12/24 08:06:48;;;;;;;10.43;1.47;;;10.20;99.90;;;;;;4897813;29;20701;-69
2022/12/24 08:09:15;;;;;;;15.87;1.50;;;10.20;99.90;;;;;;4898043;29;20234;-69
2022/12/24 08:11:42;;;;;;;19.30;2.60;;;10.20;99.90;;;;;;4894126;29;20278;-69
2022/12/24 08:14:09;;;;;;;16.10;2.33;;;10.20;99.90;;;;;;4895179;29;20218;-69
2022/12/24 08:16:36;;;;;;;15.33;2.20;;;10.20;99.90;;;;;;4894827;29;20240;-69
2022/12/24 08:19:03;;;;;;;16.57;2.07;;;10.20;99.90;;;;;;4897627;29;20230;-68
2022/12/24 08:21:29;;;;;;;11.23;2.70;;;10.30;99.90;;;;;;4891774;29;20229;-70
2022/12/24 08:23:58;;;;;;;9.07;1.70;;;10.40;99.90;;;;;;4894632;29;20214;-68
2022/12/24 08:26:24;;;;;;;13.97;1.53;;;10.40;99.90;;;;;;4896472;29;20225;-69
2022/12/24 08:28:51;;;;;;;11.47;1.60;;;10.50;99.90;;;;;;4894478;29;20263;-70
2022/12/24 08:31:18;;;;;;;16.70;2.00;;;10.60;99.90;;;;;;4888443;29;20215;-70
2022/12/24 08:33:45;;;;;;;13.93;1.87;;;10.60;99.90;;;;;;4894343;29;20221;-69
2022/12/24 08:36:12;;;;;;;12.60;2.50;;;10.70;99.90;;;;;;4895885;29;20244;-69
2022/12/24 08:38:38;;;;;;;14.03;1.83;;;10.70;99.90;;;;;;4895257;29;20233;-69
2022/12/24 08:41:07;;;;;;;12.90;1.70;;;10.70;99.90;;;;;;4891231;29;20216;-70
2022/12/24 08:43:34;;;;;;;18.83;2.17;;;10.80;99.90;;;;;;4897488;29;20207;-69
2022/12/24 08:46:04;;;;;;;14.10;1.60;;;10.80;99.90;;;;;;4897520;29;20216;-69
2022/12/24 08:48:30;;;;;;;10.87;1.50;;;10.70;99.90;;;;;;4895214;29;20295;-69
2022/12/24 08:50:57;;;;;;;12.83;1.60;;;10.80;99.90;;;;;;4886777;29;20244;-69
2022/12/24 08:53:24;;;;;;;14.77;2.10;;;10.80;99.90;;;;;;4895677;29;20222;-69
2022/12/24 08:55:51;;;;;;;15.17;2.33;;;10.80;99.90;;;;;;4890413;29;20241;-69
2022/12/24 08:58:19;;;;;;;9.13;1.30;;;10.80;99.90;;;;;;4895660;29;20237;-69
2022/12/24 09:00:46;;;;;;;17.07;1.77;;;10.90;99.90;;;;;;4895574;29;20236;-69
2022/12/24 09:03:15;;;;;;;16.90;1.77;;;10.90;99.90;;;;;;4896294;29;20221;-69
2022/12/24 09:05:42;;;;;;;13.67;1.97;;;10.90;99.90;;;;;;4890859;29;20705;-69
2022/12/24 09:08:08;;;;;;;7.47;1.40;;;10.80;99.90;;;;;;4896552;29;20252;-69
2022/12/24 09:10:35;;;;;;;13.73;1.63;;;10.90;99.90;;;;;;4894962;29;20210;-69
2022/12/24 09:13:02;;;;;;;16.83;2.40;;;11.00;99.90;;;;;;4895531;29;20224;-69
2022/12/24 09:15:30;;;;;;;13.93;2.30;;;11.10;99.90;;;;;;4891523;29;20238;-69
2022/12/24 09:17:57;;;;;;;9.03;1.30;;;11.00;99.90;;;;;;4895306;29;20240;-69
2022/12/24 09:20:24;;;;;;;12.23;2.13;;;11.00;99.90;;;;;;4889718;29;20220;-69
2022/12/24 09:22:51;;;;;;;8.00;2.00;;;11.00;99.90;;;;;;4896706;29;20573;-69
2022/12/24 09:25:18;;;;;;;18.17;1.80;;;11.10;99.90;;;;;;4897639;29;20221;-69
2022/12/24 09:27:44;;;;;;;11.70;1.73;;;11.10;99.90;;;;;;4895909;29;20234;-69
2022/12/24 09:30:12;;;;;;;15.67;2.10;;;11.20;99.90;;;;;;4894352;29;20791;-69
2022/12/24 09:32:41;;;;;;;13.90;1.93;;;11.30;99.90;;;;;;4899681;29;20214;-69
2022/12/24 09:35:08;;;;;;;9.73;1.37;;;11.30;99.90;;;;;;4897840;29;20215;-69
2022/12/24 09:37:35;;;;;;;16.23;1.67;;;11.50;99.90;;;;;;4895317;29;20230;-69
2022/12/24 09:40:02;;;;;;;7.80;1.53;;;11.60;99.90;;;;;;4898833;29;20677;-69
2022/12/24 09:42:39;;;;;;;7.30;1.90;;;11.60;99.90;;;;;;4898885;29;20214;-69
2022/12/24 09:45:13;;;;;;;14.37;1.87;;;11.50;99.90;;;;;;4890922;29;20225;-70
2022/12/24 09:47:46;;;;;;;14.13;2.17;;;11.50;99.90;;;;;;4891687;29;20241;-69
2022/12/24 09:50:26;;;;;;;15.53;1.97;;;11.50;99.90;;;;;;4889075;29;20693;-69
2022/12/24 09:52:54;;;;;;;14.37;1.53;;;11.50;99.90;;;;;;4897015;29;20676;-70
2022/12/24 09:55:28;;;;;;;11.60;1.67;;;11.50;99.90;;;;;;4899350;29;20210;-69
2022/12/24 09:57:56;;;;;;;12.73;2.27;;;11.60;99.90;;;;;;4894927;29;20706;-69
2022/12/24 10:00:27;;;;;;;7.47;1.60;;;11.50;99.90;;;;;;4892896;29;20218;-69
2022/12/24 10:02:56;;;;;;;12.13;2.00;;;11.40;99.90;;;;;;4900624;29;20214;-69
2022/12/24 10:05:33;;;;;;;14.03;1.33;;;11.50;99.90;;;;;;4898945;29;20210;-69
2022/12/24 10:08:08;;;;;;;12.23;1.40;;;11.60;99.90;;;;;;4893091;29;20597;-69
2022/12/24 10:10:40;;;;;;;14.60;1.50;;;11.70;99.90;;;;;;4880268;29;20211;-69
2022/12/24 10:13:16;;;;;;;10.03;1.77;;;11.60;99.90;;;;;;4900310;29;20241;-69
2022/12/24 10:15:50;;;;;;;8.73;1.57;;;11.60;99.90;;;;;;4900145;29;20598;-69
2022/12/24 10:18:29;;;;;;;18.07;1.87;;;11.60;99.90;;;;;;4899258;29;20234;-69
2022/12/24 10:21:02;;;;;;;7.70;2.13;;;11.60;99.90;;;;;;4895043;29;20645;-69
2022/12/24 10:23:34;;;;;;;10.87;2.10;;;11.50;99.90;;;;;;4895729;29;20211;-70
2022/12/24 10:26:12;;;;;;;8.23;1.60;;;11.40;99.90;;;;;;4897457;29;20211;-69
2022/12/24 10:28:45;;;;;;;11.50;2.00;;;11.40;99.90;;;;;;4898003;29;20230;-69
2022/12/24 10:31:13;;;;;;;9.93;1.47;;;11.50;99.90;;;;;;4898500;29;20217;-69
2022/12/24 10:33:44;;;;;;;10.53;1.70;;;11.70;99.90;;;;;;4898511;29;20298;-70
2022/12/24 10:36:16;;;;;;;7.40;1.40;;;11.60;99.90;;;;;;4897717;29;20261;-69
2022/12/24 10:38:43;;;;;;;12.47;1.63;;;11.80;99.90;;;;;;4898926;29;20226;-69
2022/12/24 10:41:10;;;;;;;8.77;1.20;;;11.90;99.90;;;;;;4897962;29;20215;-70
2022/12/24 10:43:39;;;;;;;10.97;1.40;;;12.20;99.90;;;;;;4897363;29;20206;-70
2022/12/24 10:46:13;;;;;;;13.90;1.53;;;12.30;99.90;;;;;;4898532;29;20673;-69
2022/12/24 10:48:44;;;;;;;8.87;1.17;;;12.20;99.90;;;;;;4898199;29;20618;-68
2022/12/24 10:51:15;;;;;;;8.77;1.50;;;12.20;99.90;;;;;;4899139;29;20210;-68
2022/12/24 10:53:46;;;;;;;5.10;1.43;;;12.10;99.90;;;;;;4897786;29;20207;-68
2022/12/24 10:56:16;;;;;;;12.77;2.00;;;12.10;99.90;;;;;;4897144;29;20706;-69
2022/12/24 10:58:45;;;;;;;13.47;1.80;;;12.10;99.90;;;;;;4899313;29;20721;-70
2022/12/24 11:01:12;;;;;;;20.00;2.00;;;12.00;99.90;;;;;;4898361;29;20266;-70
2022/12/24 11:03:39;;;;;;;9.37;1.40;;;12.10;99.90;;;;;;4899061;29;20207;-69
2022/12/24 11:06:12;;;;;;;6.60;1.70;;;12.20;99.90;;;;;;4898327;29;20215;-70
2022/12/24 11:08:42;;;;;;;12.83;1.70;;;12.10;99.90;;;;;;4897673;29;20757;-69
2022/12/24 11:11:11;;;;;;;10.83;1.67;;;12.20;99.90;;;;;;4886152;29;20218;-70
2022/12/24 11:13:40;;;;;;;11.67;1.80;;;12.20;99.90;;;;;;4896701;29;20601;-71
2022/12/24 11:16:15;;;;;;;7.17;1.97;;;12.30;99.90;;;;;;4896373;29;20234;-70
2022/12/24 11:18:46;;;;;;;7.40;1.23;;;12.50;99.90;;;;;;4897016;29;20230;-69
2022/12/24 11:21:20;;;;;;;11.50;1.57;;;12.40;99.90;;;;;;4898558;29;20662;-69
2022/12/24 11:23:51;;;;;;;10.57;1.37;;;12.60;99.90;;;;;;4897898;29;20217;-69
2022/12/24 11:26:22;;;;;;;14.73;1.77;;;12.60;99.90;;;;;;4898758;29;20214;-68
2022/12/24 11:29:12;;;;;;;11.13;2.03;;;12.70;99.90;;;;;;4898745;29;20230;-69
2022/12/24 11:31:39;;;;;;;10.83;1.30;;;12.50;99.90;;;;;;4880197;29;20211;-69
2022/12/24 11:34:27;;;;;;;9.37;2.00;;;12.40;99.90;;;;;;4887816;29;20211;-69
2022/12/24 11:37:08;;;;;;;11.63;1.47;;;12.50;99.90;;;;;;4898220;29;20238;-69
2022/12/24 11:39:40;;;;;;;9.77;1.43;;;12.50;99.90;;;;;;4897647;29;20209;-69
2022/12/24 11:42:21;;;;;;;13.60;2.50;;;12.50;99.90;;;;;;4896927;29;20218;-69
2022/12/24 11:44:50;;;;;;;11.67;1.60;;;12.50;99.90;;;;;;4897152;29;20214;-69
2022/12/24 11:47:17;;;;;;;11.90;2.03;;;12.50;99.90;;;;;;4897248;29;20229;-69
2022/12/24 11:49:43;;;;;;;7.67;1.77;;;12.50;99.90;;;;;;4898173;29;20214;-69
2022/12/24 11:52:26;;;;;;;8.43;2.03;;;12.80;99.90;;;;;;4897437;29;20217;-69
2022/12/24 11:55:17;;;;;;;14.90;1.73;;;13.00;99.90;;;;;;4898298;29;20216;-71
2022/12/24 11:57:53;;;;;;;10.60;1.30;;;13.10;99.90;;;;;;4898306;29;20242;-70
2022/12/24 12:00:20;;;;;;;10.50;1.50;;;13.00;99.90;;;;;;4897861;29;20217;-70
2022/12/24 12:02:51;;;;;;;7.27;1.40;;;12.90;99.90;;;;;;4898417;29;20215;-70
2022/12/24 12:05:21;;;;;;;10.50;1.40;;;12.90;99.90;;;;;;4897984;29;20217;-70
2022/12/24 12:07:51;;;;;;;7.80;2.53;;;12.90;99.90;;;;;;4898169;29;20230;-70
2022/12/24 12:10:22;;;;;;;12.63;1.83;;;12.90;99.90;;;;;;4897206;29;20210;-70
2022/12/24 12:12:57;;;;;;;6.67;1.40;;;12.80;99.90;;;;;;4897480;29;20214;-70
2022/12/24 12:15:27;;;;;;;9.93;1.37;;;12.70;99.90;;;;;;4898109;29;20206;-70
2022/12/24 12:18:00;;;;;;;13.03;1.57;;;12.70;99.90;;;;;;4896899;29;20253;-70
2022/12/24 12:20:30;;;;;;;12.00;1.93;;;12.70;99.90;;;;;;4898005;29;20220;-70
2022/12/24 12:23:03;;;;;;;6.40;1.43;;;12.80;99.90;;;;;;4898076;29;20661;-70
2022/12/24 12:25:36;;;;;;;8.50;1.33;;;12.90;99.90;;;;;;4898190;29;20221;-69
2022/12/24 12:28:07;;;;;;;9.47;1.47;;;12.90;99.90;;;;;;4896985;29;20756;-69
2022/12/24 12:30:37;;;;;;;9.70;1.17;;;13.00;99.90;;;;;;4897863;29;20214;-69
2022/12/24 12:33:19;;;;;;;9.43;1.57;;;13.00;99.90;;;;;;4897972;29;20230;-69
2022/12/24 12:35:47;;;;;;;10.30;1.60;;;12.90;99.90;;;;;;4897257;29;20292;-68
2022/12/24 12:38:20;;;;;;;8.67;1.33;;;12.90;99.90;;;;;;4897942;29;20246;-70
2022/12/24 12:41:00;;;;;;;10.13;1.83;;;13.00;99.90;;;;;;4897917;29;20207;-69
2022/12/24 12:43:42;;;;;;;11.37;1.90;;;12.90;99.90;;;;;;4897745;29;20293;-69
2022/12/24 12:46:17;;;;;;;9.67;2.00;;;12.80;99.90;;;;;;4897202;29;20214;-69
2022/12/24 12:49:00;;;;;;;10.97;1.27;;;12.80;99.90;;;;;;4895575;29;20715;-69
2022/12/24 12:51:32;;;;;;;9.70;1.80;;;12.80;99.90;;;;;;4895160;29;20198;-68
2022/12/24 12:54:27;;;;;;;12.43;1.33;;;12.70;99.90;;;;;;4895190;29;20218;-69
2022/12/24 12:56:58;;;;;;;6.77;1.20;;;12.80;99.90;;;;;;4896048;29;20238;-69
2022/12/24 12:59:32;;;;;;;8.93;1.27;;;12.80;99.90;;;;;;4896722;29;20218;-69
2022/12/24 13:02:12;;;;;;;8.30;1.93;;;12.70;99.90;;;;;;4897279;29;20217;-69
2022/12/24 13:05:05;;;;;;;10.17;1.30;;;12.70;99.90;;;;;;4896130;29;20218;-70
2022/12/24 13:08:01;;;;;;;5.67;1.40;;;13.00;99.90;;;;;;4897452;29;20681;-69
2022/12/24 13:10:43;;;;;;;7.93;1.33;;;13.10;99.90;;;;;;4897278;29;20689;-68
2022/12/24 13:13:50;;;;;;;8.40;1.20;;;13.20;99.90;;;;;;4891121;29;20218;-69
2022/12/24 13:16:55;;;;;;;12.57;1.20;;;13.30;99.90;;;;;;4873622;29;20578;-69
2022/12/24 13:19:35;;;;;;;11.73;1.40;;;13.10;99.90;;;;;;4888385;29;20213;-69
2022/12/24 13:22:02;;;;;;;12.33;1.57;;;13.10;99.90;;;;;;4895889;29;20206;-70
2022/12/24 13:24:31;;;;;;;5.63;1.20;;;13.20;99.90;;;;;;4896604;29;20599;-69
2022/12/24 13:27:06;;;;;;;6.13;1.33;;;13.30;99.90;;;;;;4896235;29;20206;-69
2022/12/24 13:29:42;;;;;;;11.20;1.60;;;13.40;99.90;;;;;;4895544;29;20210;-69
2022/12/24 13:32:47;;;;;;;6.13;1.50;;;13.30;99.90;;;;;;4893708;29;20225;-69
2022/12/24 13:35:35;;;;;;;5.27;1.40;;;13.30;99.90;;;;;;4894842;29;20199;-69
2022/12/24 13:38:42;;;;;;;4.90;1.33;;;13.10;99.90;;;;;;4895559;29;20234;-69
2022/12/24 13:41:38;;;;;;;11.27;1.60;;;13.00;99.90;;;;;;4893628;29;20199;-69
2022/12/24 13:44:21;;;;;;;10.07;1.60;;;13.10;99.90;;;;;;4894381;29;20206;-69
2022/12/24 13:46:56;;;;;;;10.90;1.70;;;13.10;99.90;;;;;;4892905;29;20237;-69
2022/12/24 13:49:29;;;;;;;12.87;1.33;;;13.30;99.90;;;;;;4895419;29;20561;-69
2022/12/24 13:52:24;;;;;;;9.17;1.23;;;13.30;99.90;;;;;;4895666;29;20207;-69
2022/12/24 13:55:04;;;;;;;9.90;1.60;;;13.40;99.90;;;;;;4894240;29;20211;-69
2022/12/24 13:57:38;;;;;;;10.43;1.43;;;13.50;99.90;;;;;;4892718;29;20253;-69
2022/12/24 14:00:24;;;;;;;6.87;1.53;;;13.60;99.90;;;;;;4893141;29;20547;-69
2022/12/24 14:02:54;;;;;;;13.00;2.23;;;13.70;99.90;;;;;;4896427;29;20555;-68
2022/12/24 14:05:27;;;;;;;10.83;1.20;;;13.40;99.90;;;;;;4895945;29;20211;-69
2022/12/24 14:07:56;;;;;;;12.13;1.63;;;13.40;99.90;;;;;;4892331;29;20234;-72
2022/12/24 14:10:26;;;;;;;8.97;2.10;;;13.40;99.90;;;;;;4895768;29;20220;-71
2022/12/24 14:12:53;;;;;;;10.87;1.53;;;13.30;99.90;;;;;;4900374;29;20221;-72
2022/12/24 14:16:03;;;;;;;11.33;1.67;;;13.10;99.90;;;;;;4899029;29;20202;-72
2022/12/24 14:18:33;;;;;;;15.63;1.30;;;13.10;99.90;;;;;;4896172;29;20914;-69
2022/12/24 14:21:01;;;;;;;5.80;2.07;;;12.90;99.90;;;;;;4897572;29;20214;-72
2022/12/24 14:23:44;;;;;;;7.60;1.43;;;12.90;99.90;;;;;;4898109;29;20217;-73
2022/12/24 14:26:15;;;;;;;6.73;1.50;;;13.00;99.90;;;;;;4898199;29;20206;-72
2022/12/24 14:28:45;;;;;;;6.67;1.30;;;13.10;99.90;;;;;;4898610;29;20230;-72
2022/12/24 14:31:16;;;;;;;9.10;1.20;;;12.90;99.90;;;;;;4898961;29;20654;-72
2022/12/24 14:33:45;;;;;;;10.60;1.40;;;12.80;99.90;;;;;;4897641;29;20203;-72
2022/12/24 14:36:14;;;;;;;8.00;1.50;;;12.60;99.90;;;;;;4898126;29;20210;-72
2022/12/24 14:38:42;;;;;;;4.90;1.00;;;12.70;99.90;;;;;;4897538;29;20257;-72
2022/12/24 14:41:19;;;;;;;6.63;1.20;;;12.60;99.90;;;;;;4892723;29;20211;-73
2022/12/24 14:43:53;;;;;;;7.67;1.90;;;12.60;99.90;;;;;;4879242;29;20217;-75
2022/12/24 14:46:28;;;;;;;10.93;1.67;;;12.60;99.90;;;;;;4879930;29;20219;-73
2022/12/24 14:49:00;;;;;;;6.53;1.63;;;12.60;99.90;;;;;;4891606;29;20241;-75
2022/12/24 14:51:39;;;;;;;10.17;1.47;;;12.50;99.90;;;;;;4898002;29;20206;-74
2022/12/24 14:54:25;;;;;;;13.37;1.90;;;12.40;99.90;;;;;;4898173;29;20210;-75
2022/12/24 14:57:11;;;;;;;8.80;1.97;;;12.40;99.90;;;;;;4897919;29;20216;-78
2022/12/24 14:59:49;;;;;;;10.87;1.80;;;12.30;99.90;;;;;;4897410;29;20217;-74
2022/12/24 15:02:40;;;;;;;11.27;1.67;;;12.20;99.90;;;;;;4898046;29;20334;-74
2022/12/24 15:05:14;;;;;;;13.00;2.13;;;12.20;99.90;;;;;;4897703;29;20217;-72
2022/12/24 15:07:45;;;;;;;7.37;1.90;;;12.20;99.90;;;;;;4897735;29;20230;-73
2022/12/24 15:10:28;;;;;;;15.50;3.13;;;12.30;99.90;;;;;;4896410;29;20229;-73
2022/12/24 15:12:58;;;;;;;11.80;1.97;;;12.30;99.90;;;;;;4897980;29;20211;-73
2022/12/24 15:15:25;;;;;;;9.47;1.53;;;12.20;99.90;;;;;;4906666;29;20210;-73
2022/12/24 15:17:52;;;;;;;6.53;1.30;;;12.20;99.90;;;;;;4896746;29;20276;-73
2022/12/24 15:20:23;;;;;;;7.27;1.20;;;12.20;99.90;;;;;;4897672;29;20215;-73
2022/12/24 15:22:53;;;;;;;7.73;1.70;;;12.20;99.90;;;;;;4896876;29;20214;-73
2022/12/24 15:25:22;;;;;;;6.37;1.00;;;12.10;99.90;;;;;;4895832;29;20293;-72
2022/12/24 15:27:49;;;;;;;10.57;2.00;;;12.10;99.90;;;;;;4896837;29;20238;-72
2022/12/24 15:30:18;;;;;;;8.73;1.53;;;12.00;99.90;;;;;;4897764;29;20214;-72
2022/12/24 15:32:45;;;;;;;5.23;1.33;;;11.90;99.90;;;;;;4896973;29;20215;-70
2022/12/24 15:35:48;;;;;;;10.00;1.67;;;11.90;99.90;;;;;;4898462;29;20210;-72
2022/12/24 15:38:25;;;;;;;7.30;1.47;;;11.80;99.90;;;;;;4897032;29;20276;-71
2022/12/24 15:40:52;;;;;;;4.33;1.23;;;11.80;99.90;;;;;;4894681;29;20217;-69
2022/12/24 15:43:19;;;;;;;7.27;1.70;;;11.80;99.90;;;;;;4897150;29;20221;-70
2022/12/24 15:45:48;;;;;;;10.80;3.10;;;11.80;99.90;;;;;;4895649;29;20214;-70
2022/12/24 15:48:22;;;;;;;9.17;1.90;;;11.90;99.90;;;;;;4907762;29;20365;-70
2022/12/24 15:50:52;;;;;;;10.43;1.80;;;11.90;99.90;;;;;;4898253;29;20722;-70
2022/12/24 15:53:24;;;;;;;6.87;1.93;;;11.90;99.90;;;;;;4897822;29;20210;-71
